Richmond, VA

4:49 PM EDT on October 01, 2014 (GMT -0400)
Dinwiddie County | Change Station
CLOSE
Current Station
Airport
Location: Petersburg,
Elevation: 194 ft
Nearby Weather Stations

Elev 194 ft 37.18 °N, 77.51 °W | Updated -2718 second ago

Mostly Cloudy
Mostly Cloudy
72 °F
Feels Like 72 °F
N
0
Wind Variable Wind from North

Today
High -- | Low -- °F
--% Chance of Precip.
Yesterday
High -- | Low -- °F
Precip. -- in
7:05 AM 6:53 PM
Waxing Crescent, 51% visible
Pressure 29.88 in
Visibility 10.0 miles
Clouds Mostly Cloudy 2600 ft
Dew Point 60 °F
Humidity 65%
Rainfall 0.00 in
Snow Depth Not available.
UV 0 out of 12
Pollen 3.50 out of 12
Ozone Good
PM2.5 Good
Flu Activity Not available.
METAR KPTB 302135Z AUTO 00000KT 10SM BKN026 23/16 A2988 RMK AO2 T02250156

More Conditions Fewer Conditions

Pressure 29.88 in
Visibility 10.0 miles
Clouds Mostly Cloudy 2600 ft
Dew Point 60 °F
Humidity 65%
Rainfall 0.00 in
Snow Depth Not available.
UV 0 out of 12
Pollen 3.50 out of 12
Ozone Good
PM2.5 Good
Flu Activity Not available.
METAR KPTB 302135Z AUTO 00000KT 10SM BKN026 23/16 A2988 RMK AO2 T02250156

More Conditions Fewer Conditions

10-Day Weather Forecast

Almanac

Astronomy

Oct. 01, 2014 Rise Set
Actual Time 7:05 AM EDT 6:53 PM EDT
Civil Twilight 6:39 AM EDT 7:19 PM EDT
Nautical Twilight 6:09 AM EDT 7:49 PM EDT
Astronomical Twilight 5:38 AM EDT 8:20 PM EDT
Moon 1:59 PM EDT No Moon Set
Length of Visible Light 12h 39m
Length of Day
11h 47m
Tomorrow will be 2m 22s shorter.
Waxing Crescent, 51% of the Moon is Illuminated
Today
Waxing Crescent
Oct 8
Full
Oct 15
Last Quarter
Oct 23
New
Oct 30
First Quarter

Today's Extremes

State Highs State Lows

Community

WunderPhotos

Upload Photos

1,758,043 photos uploaded!

WunderBlogs® & News

By Dr. Jeff Masters
Director of Meteorology, Weather Underground
By Kari Strenfel
Meteorologist, Weather Underground
By Christopher C. Burt
Weather Historian, Weather Underground
October 1, 2014
October 1, 2014
October 1, 2014

Nearby

Air Quality

  Air Quality AQ Index Pollutant
Yesterday Moderate
PM2.5
Yesterday Good
OZONE
Current Good
OZONE
Current Good
PM2.5
Wednesday Moderate
PM2.5
Thursday Good
PM2.5

Snow Depth

Station Depth Elevation
No new snow has been reported.

Earthquake Activity

City Distance Mag. Time & Date
No recent earthquake activity has been reported nearby.
Minimum magnitude displayed is 2.5.

Coastal Water Temperatures

Place Temperature
No Stations Reporting

Nearby Weather Stations